createdAt,value
2023-01-29T00:00:10.068Z,36.75
2023-01-29T00:05:25.938Z,34.70
2023-01-29T00:07:53.577Z,36.80
2023-01-29T00:10:20.207Z,34.05
2023-01-29T00:12:46.787Z,33.88
2023-01-29T00:15:13.398Z,35.22
2023-01-29T00:17:40.053Z,34.38
2023-01-29T00:20:07.126Z,38.08
2023-01-29T00:22:33.742Z,32.50
2023-01-29T00:25:00.363Z,35.70
2023-01-29T00:27:26.996Z,35.38
2023-01-29T00:30:11.951Z,35.05
2023-01-29T00:32:42.028Z,38.22
2023-01-29T00:35:09.490Z,36.42
2023-01-29T00:37:36.298Z,36.85
2023-01-29T00:40:04.575Z,35.50
2023-01-29T00:42:50.457Z,36.13
2023-01-29T00:45:17.157Z,35.15
2023-01-29T00:47:45.317Z,35.45
2023-01-29T00:50:12.977Z,39.90
2023-01-29T00:52:42.867Z,36.88
2023-01-29T00:55:11.181Z,34.10
2023-01-29T00:57:38.646Z,35.50
2023-01-29T01:00:09.759Z,35.55
2023-01-29T01:02:54.838Z,35.28
2023-01-29T01:05:21.599Z,34.00
2023-01-29T01:07:52.670Z,35.42
2023-01-29T01:10:32.894Z,36.10
2023-01-29T01:13:04.072Z,34.80
2023-01-29T01:15:35.377Z,32.83
2023-01-29T01:18:04.724Z,35.90
2023-01-29T01:20:35.604Z,37.88
2023-01-29T01:23:02.913Z,35.45
2023-01-29T01:25:29.591Z,35.15
2023-01-29T01:30:27.192Z,35.42
2023-01-29T01:32:54.789Z,32.90
2023-01-29T01:35:23.991Z,35.55
2023-01-29T01:37:50.810Z,32.35
2023-01-29T01:40:21.181Z,34.40
2023-01-29T01:42:53.521Z,33.42
2023-01-29T01:45:30.351Z,32.45
2023-01-29T01:48:19.984Z,31.23
2023-01-29T01:50:58.695Z,32.67
2023-01-29T01:53:44.852Z,31.48
2023-01-29T01:56:18.549Z,29.25
2023-01-29T01:58:54.915Z,32.90
2023-01-29T02:01:27.850Z,33.40
2023-01-29T02:04:23.210Z,31.60
2023-01-29T02:07:10.234Z,33.78
2023-01-29T02:09:46.311Z,32.67
2023-01-29T02:12:16.890Z,31.95
2023-01-29T02:14:44.071Z,32.85
2023-01-29T02:17:15.446Z,32.15
2023-01-29T02:20:08.380Z,32.30
2023-01-29T02:22:59.181Z,37.20
2023-01-29T02:25:57.610Z,34.10
2023-01-29T02:28:42.351Z,32.85
2023-01-29T02:32:07.930Z,32.88
2023-01-29T02:34:57.706Z,30.10
2023-01-29T02:37:38.128Z,38.13
2023-01-29T02:40:27.297Z,37.15
2023-01-29T02:43:09.372Z,34.03
2023-01-29T02:45:49.109Z,35.58
2023-01-29T02:48:23.891Z,33.88
2023-01-29T02:51:07.716Z,34.60
2023-01-29T02:53:41.274Z,36.13
2023-01-29T02:56:23.950Z,32.88
2023-01-29T02:59:15.181Z,36.67
2023-01-29T03:02:10.648Z,33.10
2023-01-29T03:04:46.477Z,32.72
2023-01-29T03:07:41.241Z,31.88
2023-01-29T03:10:27.927Z,32.25
2023-01-29T03:13:06.272Z,31.88
2023-01-29T03:15:48.324Z,29.42
2023-01-29T03:18:30.948Z,32.15
2023-01-29T03:21:32.121Z,33.03
2023-01-29T03:24:19.045Z,29.23
2023-01-29T03:27:05.497Z,27.48
2023-01-29T03:29:56.997Z,29.27
2023-01-29T03:32:30.561Z,30.48
2023-01-29T03:35:05.119Z,31.48
2023-01-29T03:37:46.175Z,30.15
2023-01-29T03:40:14.018Z,29.67
2023-01-29T03:43:04.667Z,29.65
2023-01-29T03:45:42.741Z,30.73
2023-01-29T03:48:40.009Z,31.73
2023-01-29T03:51:53.926Z,29.02
2023-01-29T03:54:29.688Z,31.77
2023-01-29T03:57:20.104Z,28.23
2023-01-29T04:00:02.766Z,29.25
2023-01-29T04:03:02.059Z,29.80
2023-01-29T04:05:40.919Z,29.63
2023-01-29T04:08:25.745Z,30.90
2023-01-29T04:10:56.504Z,31.63
2023-01-29T04:13:24.929Z,31.23
2023-01-29T04:15:57.995Z,31.13
2023-01-29T04:18:47.653Z,31.08
2023-01-29T04:21:16.343Z,29.85
2023-01-29T04:23:43.897Z,31.08
2023-01-29T04:26:24.797Z,30.13
2023-01-29T04:29:11.066Z,28.20
2023-01-29T04:32:18.340Z,28.33
2023-01-29T04:37:50.800Z,27.55
2023-01-29T04:40:47.464Z,27.13
2023-01-29T04:43:43.306Z,28.45
2023-01-29T04:46:22.090Z,29.10
2023-01-29T04:49:12.796Z,31.10
2023-01-29T04:52:23.045Z,28.17
2023-01-29T04:55:43.553Z,28.27
2023-01-29T04:58:36.853Z,27.75
2023-01-29T05:01:09.054Z,28.55
2023-01-29T05:03:38.126Z,27.95
2023-01-29T05:06:06.466Z,27.55
2023-01-29T05:08:33.927Z,28.52
2023-01-29T05:11:00.838Z,29.80
2023-01-29T05:13:31.900Z,27.48
2023-01-29T05:16:10.072Z,26.98
2023-01-29T05:18:36.803Z,29.80
2023-01-29T05:21:08.489Z,27.92
2023-01-29T05:23:35.618Z,27.80
2023-01-29T05:26:02.835Z,27.50
2023-01-29T05:28:29.564Z,27.27
2023-01-29T05:30:57.312Z,25.95
2023-01-29T05:33:27.812Z,26.92
2023-01-29T05:35:55.787Z,25.98
2023-01-29T05:38:23.044Z,28.02
2023-01-29T05:40:50.158Z,27.90
2023-01-29T05:43:19.229Z,26.92
2023-01-29T05:45:56.020Z,27.15
2023-01-29T05:48:23.748Z,27.02
2023-01-29T05:50:50.988Z,25.50
2023-01-29T05:53:17.753Z,25.05
2023-01-29T05:55:48.383Z,26.35
2023-01-29T05:58:15.253Z,28.63
2023-01-29T06:00:42.571Z,27.90
2023-01-29T06:03:09.416Z,27.27
2023-01-29T06:05:39.800Z,28.60
2023-01-29T06:08:07.954Z,27.50
2023-01-29T06:10:35.234Z,27.70
2023-01-29T06:13:01.953Z,26.58
2023-01-29T06:15:28.663Z,29.02
2023-01-29T06:17:56.527Z,26.58
2023-01-29T06:20:24.283Z,29.95
2023-01-29T06:22:51.015Z,29.98
2023-01-29T06:25:17.801Z,28.95
2023-01-29T06:27:44.403Z,31.85
2023-01-29T06:30:11.883Z,28.40
2023-01-29T06:32:38.563Z,29.67
2023-01-29T06:35:05.971Z,28.73
2023-01-29T06:37:32.675Z,29.55
2023-01-29T06:39:59.270Z,27.33
2023-01-29T06:42:27.865Z,27.58
2023-01-29T06:44:57.955Z,27.73
2023-01-29T06:47:24.837Z,29.25
2023-01-29T06:49:52.090Z,28.60
2023-01-29T06:52:19.110Z,29.63
2023-01-29T06:54:45.743Z,29.85
2023-01-29T06:57:12.397Z,29.27
2023-01-29T06:59:39.021Z,32.10
2023-01-29T07:02:05.740Z,29.88
2023-01-29T07:04:32.377Z,27.95
2023-01-29T07:07:02.053Z,29.88
2023-01-29T07:09:28.667Z,29.10
2023-01-29T07:11:55.255Z,25.90
2023-01-29T07:14:21.882Z,29.17
2023-01-29T07:16:48.463Z,27.77
2023-01-29T07:19:15.346Z,31.77
2023-01-29T07:21:41.966Z,29.17
2023-01-29T07:24:09.031Z,28.08
2023-01-29T07:26:35.688Z,29.80
2023-01-29T07:29:02.327Z,31.58
2023-01-29T07:31:29.018Z,30.77
2023-01-29T07:33:55.947Z,31.67
2023-01-29T07:36:24.000Z,29.80
2023-01-29T07:38:51.410Z,28.23
2023-01-29T07:41:18.672Z,28.08
2023-01-29T07:43:46.512Z,29.25
2023-01-29T07:46:13.451Z,31.38
2023-01-29T07:48:40.169Z,28.83
2023-01-29T07:51:07.134Z,30.20
2023-01-29T07:53:33.866Z,29.70
2023-01-29T07:56:00.545Z,30.63
2023-01-29T07:58:27.140Z,29.70
2023-01-29T08:00:53.772Z,31.05
2023-01-29T08:03:20.792Z,29.58
2023-01-29T08:05:48.220Z,30.92
2023-01-29T08:08:15.274Z,31.50
2023-01-29T08:10:42.464Z,27.92
2023-01-29T08:13:09.812Z,29.48
2023-01-29T08:18:23.493Z,29.58
2023-01-29T08:20:50.108Z,29.08
2023-01-29T08:23:16.886Z,30.15
2023-01-29T08:25:43.874Z,30.52
2023-01-29T08:28:12.187Z,27.75
2023-01-29T08:30:38.947Z,31.00
2023-01-29T08:33:05.607Z,29.65
2023-01-29T08:35:32.232Z,30.95
2023-01-29T08:38:02.008Z,30.02
2023-01-29T08:40:31.937Z,30.83
2023-01-29T08:43:02.121Z,30.85
2023-01-29T08:45:31.144Z,30.25
2023-01-29T08:47:57.774Z,29.55
2023-01-29T08:50:24.839Z,27.90
2023-01-29T08:52:51.576Z,31.60
2023-01-29T08:55:18.613Z,30.08
2023-01-29T08:57:45.389Z,29.45
2023-01-29T09:00:12.837Z,27.98
2023-01-29T09:02:39.534Z,31.88
2023-01-29T09:05:07.243Z,28.92
2023-01-29T09:07:34.247Z,29.15
2023-01-29T09:10:01.380Z,30.30
2023-01-29T09:12:28.099Z,30.50
2023-01-29T09:14:54.716Z,30.25
2023-01-29T09:17:21.446Z,30.17
2023-01-29T09:19:48.154Z,30.17
2023-01-29T09:22:15.010Z,31.10
2023-01-29T09:24:41.621Z,28.83
2023-01-29T09:27:09.936Z,29.90
2023-01-29T09:29:37.071Z,27.60
2023-01-29T09:32:05.185Z,31.40
2023-01-29T09:34:33.974Z,29.45
2023-01-29T09:37:00.771Z,30.15
2023-01-29T09:39:27.392Z,28.75
2023-01-29T09:42:07.693Z,28.17
2023-01-29T09:44:53.056Z,29.23
2023-01-29T09:47:22.952Z,28.95
2023-01-29T09:49:56.800Z,28.40
2023-01-29T09:52:27.766Z,27.05
2023-01-29T09:55:04.304Z,28.27
2023-01-29T09:58:14.263Z,29.25
2023-01-29T10:00:47.717Z,28.75
2023-01-29T10:03:23.608Z,28.63
2023-01-29T10:09:02.232Z,27.83
2023-01-29T10:12:10.393Z,28.30
2023-01-29T10:15:13.604Z,27.35
2023-01-29T10:18:09.507Z,26.20
2023-01-29T10:21:04.607Z,25.98
2023-01-29T10:23:56.422Z,27.50
2023-01-29T10:26:27.423Z,26.25
2023-01-29T10:28:57.380Z,26.70
2023-01-29T10:31:34.310Z,26.38
2023-01-29T10:34:13.660Z,29.10
2023-01-29T10:36:49.591Z,28.58
2023-01-29T10:42:05.664Z,25.90
2023-01-29T10:45:15.823Z,25.00
2023-01-29T10:48:24.913Z,27.55
2023-01-29T10:51:20.460Z,24.73
2023-01-29T10:54:18.025Z,27.17
2023-01-29T10:57:10.900Z,26.08
2023-01-29T11:00:10.376Z,25.13
2023-01-29T11:02:36.961Z,24.23
2023-01-29T11:05:03.736Z,26.15
2023-01-29T11:07:32.025Z,28.65
2023-01-29T11:10:13.886Z,25.58
2023-01-29T11:12:41.665Z,25.08
2023-01-29T11:15:34.842Z,25.58
2023-01-29T11:18:13.159Z,25.05
2023-01-29T11:20:42.448Z,24.77
2023-01-29T11:23:33.727Z,25.52
2023-01-29T11:26:01.295Z,24.52
2023-01-29T11:28:43.784Z,24.02
2023-01-29T11:31:25.972Z,24.65
2023-01-29T11:34:20.696Z,25.50
2023-01-29T11:36:58.077Z,24.98
2023-01-29T11:39:27.399Z,24.65
2023-01-29T11:41:53.991Z,24.73
2023-01-29T11:44:31.329Z,24.25
2023-01-29T11:47:11.584Z,24.55
2023-01-29T11:49:41.157Z,24.88
2023-01-29T11:52:11.093Z,22.92
2023-01-29T11:54:58.037Z,24.15
2023-01-29T11:57:32.291Z,25.20
2023-01-29T12:00:06.553Z,22.85
2023-01-29T12:02:54.177Z,24.58
2023-01-29T12:07:59.954Z,23.25
2023-01-29T12:10:36.718Z,25.42
2023-01-29T12:13:09.163Z,24.17
2023-01-29T12:15:40.841Z,25.38
2023-01-29T12:18:37.122Z,24.83
2023-01-29T12:21:16.046Z,23.20
2023-01-29T12:23:51.721Z,25.73
2023-01-29T12:26:31.105Z,23.73
2023-01-29T12:29:31.797Z,23.48
2023-01-29T12:32:11.974Z,23.88
2023-01-29T12:34:52.080Z,24.52
2023-01-29T12:37:48.541Z,23.42
2023-01-29T12:40:18.329Z,26.25
2023-01-29T12:42:50.501Z,23.52
2023-01-29T12:45:24.120Z,26.20
2023-01-29T12:48:08.333Z,23.08
2023-01-29T12:50:37.590Z,23.80
2023-01-29T12:53:30.148Z,23.45
2023-01-29T12:56:16.945Z,24.80
2023-01-29T12:58:49.658Z,24.63
2023-01-29T13:01:43.059Z,25.05
2023-01-29T13:04:30.845Z,24.02
2023-01-29T13:07:12.961Z,23.27
2023-01-29T13:09:46.263Z,23.58
2023-01-29T13:12:19.315Z,24.38
2023-01-29T13:14:59.231Z,24.90
2023-01-29T13:17:54.170Z,22.08
2023-01-29T13:20:34.000Z,24.60
2023-01-29T13:23:44.303Z,23.88
2023-01-29T13:26:13.826Z,22.55
2023-01-29T13:28:45.134Z,23.30
2023-01-29T13:31:26.944Z,25.35
2023-01-29T13:34:02.766Z,23.00
2023-01-29T13:36:31.120Z,25.15
2023-01-29T13:39:07.964Z,24.13
2023-01-29T13:41:39.201Z,23.95
2023-01-29T13:44:17.980Z,24.20
2023-01-29T13:46:53.654Z,24.50
2023-01-29T13:49:45.616Z,25.27
2023-01-29T13:53:08.272Z,21.70
2023-01-29T13:55:40.078Z,24.30
2023-01-29T13:58:15.719Z,21.75
2023-01-29T14:00:42.337Z,22.23
2023-01-29T14:03:11.589Z,22.38
2023-01-29T14:05:41.700Z,23.23
2023-01-29T14:08:15.004Z,20.70
2023-01-29T14:10:43.552Z,20.38
2023-01-29T14:13:19.257Z,22.30
2023-01-29T14:16:12.306Z,21.95
2023-01-29T14:19:06.045Z,21.40
2023-01-29T14:21:36.143Z,20.35
2023-01-29T14:24:33.577Z,20.83
2023-01-29T14:27:00.459Z,19.67
2023-01-29T14:29:38.116Z,19.38
2023-01-29T14:32:07.823Z,18.73
2023-01-29T14:34:56.377Z,18.90
2023-01-29T14:37:36.116Z,20.25
2023-01-29T14:40:11.943Z,18.58
2023-01-29T14:43:02.722Z,17.80
2023-01-29T14:45:41.836Z,19.08
2023-01-29T14:48:11.605Z,17.63
2023-01-29T14:50:49.002Z,20.90
2023-01-29T14:54:06.386Z,18.42
2023-01-29T14:56:53.199Z,16.25
2023-01-29T14:59:29.294Z,18.92
2023-01-29T15:02:00.784Z,18.17
2023-01-29T15:04:59.903Z,17.77
2023-01-29T15:07:53.031Z,16.70
2023-01-29T15:10:35.808Z,16.10
2023-01-29T15:13:45.203Z,15.68
2023-01-29T15:16:23.251Z,14.68
2023-01-29T15:18:54.962Z,15.40
2023-01-29T15:21:21.724Z,14.65
2023-01-29T15:24:05.812Z,13.52
2023-01-29T15:26:36.330Z,15.65
2023-01-29T15:29:04.632Z,14.88
2023-01-29T15:31:32.493Z,14.98
2023-01-29T15:34:04.821Z,16.13
2023-01-29T15:36:32.399Z,14.98
2023-01-29T15:39:22.656Z,13.68
2023-01-29T15:41:52.075Z,14.30
2023-01-29T15:44:23.066Z,14.20
2023-01-29T15:46:59.863Z,13.93
2023-01-29T15:49:39.614Z,15.48
2023-01-29T15:52:19.501Z,15.07
2023-01-29T15:54:47.568Z,13.95
2023-01-29T15:57:27.409Z,12.70
2023-01-29T15:59:57.871Z,14.10
2023-01-29T16:02:39.755Z,14.52
2023-01-29T16:05:30.478Z,14.50
2023-01-29T16:07:58.066Z,12.77
2023-01-29T16:10:30.000Z,13.88
2023-01-29T16:12:57.833Z,14.43
2023-01-29T16:15:36.369Z,12.40
2023-01-29T16:18:28.626Z,12.73
2023-01-29T16:20:58.676Z,14.45
2023-01-29T16:23:31.737Z,15.18
2023-01-29T16:26:07.613Z,13.73
2023-01-29T16:31:07.967Z,13.88
2023-01-29T16:33:42.415Z,16.00
2023-01-29T16:36:29.575Z,14.88
2023-01-29T16:39:14.592Z,15.98
2023-01-29T16:41:41.336Z,15.35
2023-01-29T16:44:17.149Z,16.55
2023-01-29T16:46:49.202Z,15.45
2023-01-29T16:49:55.461Z,16.05
2023-01-29T16:52:34.693Z,15.82
2023-01-29T16:55:12.337Z,15.75
2023-01-29T16:57:40.411Z,17.05
2023-01-29T17:00:18.333Z,18.35
2023-01-29T17:02:45.161Z,16.40
2023-01-29T17:05:22.832Z,17.48
2023-01-29T17:07:50.068Z,16.13
2023-01-29T17:10:20.264Z,17.65
2023-01-29T17:12:56.571Z,17.27
2023-01-29T17:15:52.816Z,16.13
2023-01-29T17:18:25.218Z,19.90
2023-01-29T17:20:55.140Z,15.85
2023-01-29T17:23:22.376Z,18.05
2023-01-29T17:25:49.130Z,17.40
2023-01-29T17:28:17.897Z,17.30
2023-01-29T17:30:53.457Z,17.25
2023-01-29T17:33:25.844Z,19.60
2023-01-29T17:35:52.763Z,18.60
2023-01-29T17:38:26.223Z,18.17
2023-01-29T17:41:04.427Z,17.60
2023-01-29T17:43:31.398Z,18.08
2023-01-29T17:45:58.262Z,16.90
2023-01-29T17:48:30.467Z,18.05
2023-01-29T17:51:10.593Z,18.42
2023-01-29T17:53:45.465Z,18.70
2023-01-29T17:56:30.268Z,19.65
2023-01-29T17:58:57.015Z,17.20
2023-01-29T18:01:23.865Z,17.80
2023-01-29T18:03:50.731Z,15.55
2023-01-29T18:06:27.555Z,18.23
2023-01-29T18:08:54.491Z,17.38
2023-01-29T18:11:21.299Z,17.02
2023-01-29T18:13:48.041Z,17.95
2023-01-29T18:16:14.931Z,16.55
2023-01-29T18:18:41.703Z,18.52
2023-01-29T18:21:08.407Z,17.17
2023-01-29T18:23:35.272Z,19.45
2023-01-29T18:26:02.104Z,18.52
2023-01-29T18:28:29.667Z,17.20
2023-01-29T18:30:56.414Z,16.55
2023-01-29T18:33:24.165Z,17.83
2023-01-29T18:35:50.810Z,18.02
2023-01-29T18:38:17.809Z,18.23
2023-01-29T18:40:44.612Z,16.60
2023-01-29T18:43:11.451Z,18.15
2023-01-29T18:45:38.249Z,18.92
2023-01-29T18:48:05.444Z,18.33
2023-01-29T18:50:32.545Z,19.65
2023-01-29T18:52:59.721Z,18.48
2023-01-29T18:55:26.697Z,18.10
2023-01-29T18:58:28.159Z,17.80
2023-01-29T19:00:41.488Z,19.17
2023-01-29T19:03:08.140Z,16.85
2023-01-29T19:05:34.917Z,17.50
2023-01-29T19:08:01.897Z,18.02
2023-01-29T19:10:28.734Z,17.30
2023-01-29T19:12:55.355Z,16.80
2023-01-29T19:15:22.855Z,17.65
2023-01-29T19:17:53.014Z,18.05
2023-01-29T19:20:20.241Z,17.25
2023-01-29T19:22:46.914Z,18.55
2023-01-29T19:25:13.706Z,17.08
2023-01-29T19:27:40.364Z,17.42
2023-01-29T19:30:08.744Z,17.02
2023-01-29T19:32:35.659Z,18.17
2023-01-29T19:35:02.343Z,16.73
2023-01-29T19:37:30.838Z,17.77
2023-01-29T19:39:57.566Z,17.13
2023-01-29T19:42:24.216Z,17.17
2023-01-29T19:44:52.096Z,18.17
2023-01-29T19:47:19.085Z,15.02
2023-01-29T19:49:45.838Z,17.85
2023-01-29T19:52:49.903Z,16.63
2023-01-29T19:55:18.300Z,14.65
2023-01-29T19:57:45.395Z,17.45
2023-01-29T20:00:17.273Z,16.27
2023-01-29T20:02:43.924Z,18.42
2023-01-29T20:05:12.639Z,16.83
2023-01-29T20:07:41.060Z,16.52
2023-01-29T20:10:11.266Z,16.73
2023-01-29T20:12:38.419Z,15.13
2023-01-29T20:15:07.151Z,17.98
2023-01-29T20:17:33.779Z,16.60
2023-01-29T20:20:00.460Z,16.02
2023-01-29T20:22:27.077Z,17.63
2023-01-29T20:24:54.238Z,16.00
2023-01-29T20:27:20.921Z,16.20
2023-01-29T20:29:47.624Z,16.30
2023-01-29T20:32:14.651Z,18.13
2023-01-29T20:34:41.620Z,15.50
2023-01-29T20:37:08.255Z,17.10
2023-01-29T20:39:34.930Z,17.10
2023-01-29T20:42:01.831Z,16.92
2023-01-29T20:44:28.501Z,15.73
2023-01-29T20:46:56.236Z,16.98
2023-01-29T20:49:22.841Z,15.35
2023-01-29T20:51:49.680Z,16.08
2023-01-29T20:54:16.539Z,16.35
2023-01-29T20:56:44.391Z,17.77
2023-01-29T20:59:12.310Z,15.48
2023-01-29T21:01:38.934Z,15.98
2023-01-29T21:04:05.837Z,15.63
2023-01-29T21:06:32.779Z,18.05
2023-01-29T21:08:59.579Z,15.50
2023-01-29T21:11:26.336Z,16.52
2023-01-29T21:13:57.514Z,17.48
2023-01-29T21:16:26.305Z,16.40
2023-01-29T21:18:59.443Z,15.90
2023-01-29T21:21:26.692Z,16.02
2023-01-29T21:23:53.989Z,15.50
2023-01-29T21:26:20.804Z,16.67
2023-01-29T21:28:47.578Z,17.00
2023-01-29T21:31:16.172Z,15.13
2023-01-29T21:33:43.585Z,14.80
2023-01-29T21:36:11.361Z,14.18
2023-01-29T21:38:38.998Z,16.63
2023-01-29T21:41:09.599Z,16.52
2023-01-29T21:43:37.327Z,14.77
2023-01-29T21:46:11.626Z,14.95
2023-01-29T21:48:39.857Z,15.70
2023-01-29T21:51:06.737Z,16.33
2023-01-29T21:53:34.282Z,14.95
2023-01-29T21:56:06.026Z,16.38
2023-01-29T21:58:32.904Z,14.13
2023-01-29T22:01:36.758Z,14.38
2023-01-29T22:03:47.481Z,14.60
2023-01-29T22:06:15.012Z,14.88
2023-01-29T22:08:41.703Z,16.30
2023-01-29T22:11:19.155Z,15.65
2023-01-29T22:13:45.852Z,15.50
2023-01-29T22:16:12.621Z,15.40
2023-01-29T22:18:39.254Z,15.73
2023-01-29T22:21:05.916Z,15.55
2023-01-29T22:23:32.891Z,16.55
2023-01-29T22:26:06.937Z,17.42
2023-01-29T22:28:33.625Z,16.35
2023-01-29T22:31:02.216Z,15.88
2023-01-29T22:33:28.994Z,14.40
2023-01-29T22:35:56.558Z,16.48
2023-01-29T22:38:23.964Z,17.33
2023-01-29T22:40:52.308Z,17.00
2023-01-29T22:43:19.676Z,16.13
2023-01-29T22:45:46.679Z,16.35
2023-01-29T22:48:13.828Z,16.67
2023-01-29T22:50:41.296Z,16.88
2023-01-29T22:53:08.828Z,17.80
2023-01-29T22:55:35.520Z,16.02
2023-01-29T22:58:02.102Z,16.73
2023-01-29T23:00:28.708Z,15.98
2023-01-29T23:02:55.330Z,16.48
2023-01-29T23:05:22.050Z,17.80
2023-01-29T23:07:48.715Z,18.58
2023-01-29T23:10:16.508Z,18.48
2023-01-29T23:12:43.410Z,17.38
2023-01-29T23:15:10.145Z,16.40
2023-01-29T23:17:36.880Z,15.65
2023-01-29T23:20:03.825Z,14.98
2023-01-29T23:22:30.486Z,16.65
2023-01-29T23:24:57.136Z,15.27
2023-01-29T23:27:23.801Z,17.30
2023-01-29T23:29:50.382Z,18.10
2023-01-29T23:32:20.037Z,16.08
2023-01-29T23:34:46.641Z,16.42
2023-01-29T23:37:13.430Z,16.83
2023-01-29T23:39:40.190Z,16.77
2023-01-29T23:42:06.867Z,17.23
2023-01-29T23:44:33.540Z,17.60
2023-01-29T23:47:00.240Z,16.95
2023-01-29T23:49:27.064Z,16.27
2023-01-29T23:51:53.709Z,18.33
2023-01-29T23:54:20.397Z,17.08
2023-01-29T23:56:47.200Z,16.13
2023-01-29T23:59:14.999Z,17.13
